»·PEaware :: N36BM KLAX-KSAN

N36BM :: KLAX-KSAN

FLIGHT INFORMATION

Flight Status: Arrived
Operator: Privately registered:
United States
More flights under this callsign
Pilot: Mike B. (16754)
Aircraft: CIRRUS SR-22
(SR22)
More flights by this aircraft type
Origin: KLAX Los Angeles Intl
United States
Destination: KSAN San Diego Intl-Lindbergh
United States
More flights between these airports :: More routes between these airports
Route: VFR
File this flight plan on PilotEdge
Remarks: CAT 11 Attempt - custom Wx
Altitude:
(Current/Filed)
7,500ft
Speed:
(Current/Filed)
155kts
Departed: 30-Jul-20 08:21 AM
Arrived: 30-Jul-20 09:06 AM
Distance/Time
Traveled:
95nm/0:45
Distance/Time
To Go:
Arrived

Flight Plot

Page will automatically refresh every two minutes.


Map Options




Map Legend


Flown Route
Filed Route
Departure Airport
Arrival Airport
Navaid (VOR, NDB)
Fix

Horizontal Profiles

Position Reports

Time Latitude Longitude Heading Altitude Ground
Speed
30-Jul-20 08:04 33.933538 -118.396955 287 108ft 0kts
30-Jul-20 08:05 33.933538 -118.396955 287 108ft 0kts
30-Jul-20 08:06 33.933538 -118.396955 287 108ft 0kts
30-Jul-20 08:07 33.933538 -118.396955 287 108ft 0kts
30-Jul-20 08:08 33.933538 -118.396955 287 108ft 0kts
30-Jul-20 08:09 33.933538 -118.396955 287 108ft 0kts
30-Jul-20 08:10 33.933538 -118.396955 287 108ft 0kts
30-Jul-20 08:11 33.933538 -118.396955 287 108ft 0kts
30-Jul-20 08:12 33.933538 -118.396955 287 108ft 0kts
30-Jul-20 08:13 33.934053 -118.397996 313 108ft 8kts
30-Jul-20 08:14 33.934834 -118.395377 81 108ft 14kts
30-Jul-20 08:15 33.935212 -118.391681 81 108ft 19kts
30-Jul-20 08:16 33.936038 -118.383635 84 108ft 22kts
30-Jul-20 08:17 33.936106 -118.382881 7 108ft 0kts
30-Jul-20 08:18 33.936106 -118.382881 7 108ft 0kts
30-Jul-20 08:19 33.936269 -118.382845 11 108ft 5kts
30-Jul-20 08:20 33.936718 -118.389790 266 153ft 95kts
30-Jul-20 08:21 33.933711 -118.430310 263 1276ft 136kts
30-Jul-20 08:22 33.899911 -118.437110 168 2337ft 141kts
30-Jul-20 08:23 33.857758 -118.427495 168 2702ft 159kts
30-Jul-20 08:24 33.814463 -118.417419 168 3237ft 158kts
30-Jul-20 08:25 33.770558 -118.407150 168 3505ft 167kts
30-Jul-20 08:26 33.733201 -118.379252 131 3958ft 150kts
30-Jul-20 08:27 33.705556 -118.344374 133 4809ft 144kts
30-Jul-20 08:28 33.677108 -118.309765 134 5487ft 147kts
30-Jul-20 08:29 33.645513 -118.271642 134 5504ft 168kts
30-Jul-20 08:30 33.612303 -118.231650 134 5500ft 170kts
30-Jul-20 08:31 33.578851 -118.191411 134 5500ft 170kts
30-Jul-20 08:32 33.546369 -118.150293 132 5500ft 170kts
30-Jul-20 08:33 33.514150 -118.108861 132 5500ft 170kts
30-Jul-20 08:34 33.500988 -118.058291 92 5749ft 159kts
30-Jul-20 08:35 33.498201 -118.005541 93 6105ft 158kts
30-Jul-20 08:36 33.495393 -117.954296 93 6663ft 149kts
30-Jul-20 08:37 33.492647 -117.904700 93 7164ft 149kts
30-Jul-20 08:38 33.489830 -117.854307 93 7506ft 157kts
30-Jul-20 08:39 33.486765 -117.800043 93 7501ft 166kts
30-Jul-20 08:40 33.483608 -117.744528 93 7500ft 167kts
30-Jul-20 08:41 33.474338 -117.691949 136 7500ft 166kts
30-Jul-20 08:42 33.439645 -117.654806 137 7500ft 167kts
30-Jul-20 08:43 33.401933 -117.623178 157 7498ft 167kts
30-Jul-20 08:44 33.358976 -117.602732 157 7500ft 167kts
30-Jul-20 08:45 33.316673 -117.579769 152 7500ft 166kts
30-Jul-20 08:46 33.278554 -117.549107 114 7492ft 167kts
30-Jul-20 08:47 33.259169 -117.498641 115 7500ft 166kts
30-Jul-20 08:48 33.238079 -117.449294 116 7500ft 166kts
30-Jul-20 08:49 33.203817 -117.409226 137 7121ft 181kts
30-Jul-20 08:50 33.166069 -117.368237 137 6535ft 184kts
30-Jul-20 08:51 33.125669 -117.330654 154 5928ft 185kts
30-Jul-20 08:52 33.078838 -117.306600 163 5492ft 172kts
30-Jul-20 08:53 33.045092 -117.294684 162 5456ft 94kts
30-Jul-20 08:54 33.013145 -117.286765 169 5294ft 163kts
30-Jul-20 08:55 32.963479 -117.276714 170 4483ft 182kts
30-Jul-20 08:56 32.921371 -117.268162 170 3510ft 132kts
30-Jul-20 08:57 32.882264 -117.260221 169 3509ft 157kts
30-Jul-20 08:58 32.844279 -117.252541 169 3497ft 129kts
30-Jul-20 08:59 32.806893 -117.244941 169 3200ft 143kts
30-Jul-20 09:00 32.780624 -117.217652 98 2421ft 135kts
30-Jul-20 09:01 32.770932 -117.182185 109 1582ft 93kts
30-Jul-20 09:02 32.761804 -117.153366 119 1331ft 97kts
30-Jul-20 09:03 32.738689 -117.151915 201 827ft 90kts
30-Jul-20 09:04 32.730704 -117.177472 282 126ft 85kts
30-Jul-20 09:05 32.734170 -117.194877 252 18ft 5kts
30-Jul-20 09:06 32.733411 -117.193431 105 19ft 18kts
30-Jul-20 09:07 32.731618 -117.185902 105 17ft 20kts
30-Jul-20 09:08 32.733217 -117.183971 74 17ft 8kts
30-Jul-20 09:09 32.733145 -117.179595 18 17ft 14kts
30-Jul-20 09:10 32.733564 -117.179237 26 18ft 0kts

Navigation Log

Ident Type
Flight plan parsing failed, navigation log unavailable